createdAt,value
2023-03-27T00:01:13.022Z,2.85
2023-03-27T00:03:40.881Z,3.05
2023-03-27T00:06:11.379Z,2.72
2023-03-27T00:08:39.148Z,1.95
2023-03-27T00:11:07.138Z,2.55
2023-03-27T00:13:34.723Z,2.00
2023-03-27T00:16:02.882Z,2.47
2023-03-27T00:18:29.813Z,2.53
2023-03-27T00:21:01.264Z,1.73
2023-03-27T00:23:31.874Z,1.75
2023-03-27T00:25:59.510Z,1.42
2023-03-27T00:28:29.261Z,1.20
2023-03-27T00:30:57.687Z,1.45
2023-03-27T00:33:26.165Z,1.42
2023-03-27T00:35:53.669Z,1.60
2023-03-27T00:38:22.906Z,1.30
2023-03-27T00:40:50.889Z,2.00
2023-03-27T00:43:34.029Z,2.30
2023-03-27T00:46:07.940Z,1.67
2023-03-27T00:48:37.714Z,1.42
2023-03-27T00:51:05.828Z,2.10
2023-03-27T00:53:33.648Z,1.70
2023-03-27T00:56:04.105Z,1.80
2023-03-27T00:58:42.231Z,1.92
2023-03-27T01:01:12.291Z,2.45
2023-03-27T01:03:42.600Z,2.80
2023-03-27T01:06:11.172Z,1.65
2023-03-27T01:08:38.841Z,1.80
2023-03-27T01:11:17.393Z,2.20
2023-03-27T01:13:53.326Z,1.50
2023-03-27T01:16:54.051Z,1.98
2023-03-27T01:19:45.291Z,1.60
2023-03-27T01:22:22.007Z,1.15
2023-03-27T01:25:10.578Z,0.82
2023-03-27T01:27:58.506Z,1.05
2023-03-27T01:30:31.547Z,1.30
2023-03-27T01:33:33.817Z,2.33
2023-03-27T01:36:15.493Z,1.80
2023-03-27T01:39:24.244Z,2.25
2023-03-27T01:41:51.609Z,1.60
2023-03-27T01:44:47.380Z,1.80
2023-03-27T01:47:14.377Z,2.15
2023-03-27T01:49:56.072Z,2.13
2023-03-27T01:52:31.529Z,1.92
2023-03-27T01:57:53.545Z,2.40
2023-03-27T02:00:23.567Z,2.58
2023-03-27T02:02:56.692Z,2.03
2023-03-27T02:05:50.455Z,1.65
2023-03-27T02:08:42.967Z,1.63
2023-03-27T02:11:17.584Z,1.42
2023-03-27T02:13:55.897Z,1.65
2023-03-27T02:16:28.853Z,1.42
2023-03-27T02:19:01.786Z,1.73
2023-03-27T02:21:31.326Z,2.00
2023-03-27T02:24:02.153Z,1.70
2023-03-27T02:26:30.588Z,1.73
2023-03-27T02:29:24.127Z,1.67
2023-03-27T02:31:57.196Z,2.10
2023-03-27T02:34:27.480Z,1.60
2023-03-27T02:36:55.047Z,2.17
2023-03-27T02:39:41.383Z,1.63
2023-03-27T02:42:17.051Z,1.92
2023-03-27T02:45:05.929Z,1.83
2023-03-27T02:47:43.855Z,1.65
2023-03-27T02:50:25.775Z,1.42
2023-03-27T02:53:00.862Z,1.87
2023-03-27T02:55:39.033Z,1.60
2023-03-27T02:58:14.062Z,1.75
2023-03-27T03:01:09.589Z,1.88
2023-03-27T03:04:04.916Z,1.48
2023-03-27T03:09:14.899Z,1.60
2023-03-27T03:11:48.542Z,1.30
2023-03-27T03:14:19.220Z,1.15
2023-03-27T03:16:46.880Z,1.60
2023-03-27T03:19:13.984Z,1.58
2023-03-27T03:21:41.556Z,1.52
2023-03-27T03:24:12.248Z,1.92
2023-03-27T03:26:40.058Z,1.80
2023-03-27T03:29:07.111Z,1.48
2023-03-27T03:31:44.709Z,1.55
2023-03-27T03:34:18.341Z,1.80
2023-03-27T03:36:49.981Z,1.77
2023-03-27T03:39:22.677Z,1.55
2023-03-27T03:41:50.556Z,1.58
2023-03-27T03:44:17.573Z,1.27
2023-03-27T03:46:44.640Z,1.45
2023-03-27T03:49:12.161Z,1.40
2023-03-27T03:51:39.202Z,1.88
2023-03-27T03:54:07.011Z,1.40
2023-03-27T03:56:34.451Z,1.60
2023-03-27T03:59:01.577Z,1.58
2023-03-27T04:01:29.118Z,1.85
2023-03-27T04:04:00.638Z,1.35
2023-03-27T04:06:37.797Z,1.77
2023-03-27T04:09:05.896Z,1.90
2023-03-27T04:11:51.479Z,1.65
2023-03-27T04:14:38.415Z,1.75
2023-03-27T04:17:17.960Z,1.90
2023-03-27T04:19:47.592Z,1.95
2023-03-27T04:22:17.194Z,1.70
2023-03-27T04:24:50.518Z,2.13
2023-03-27T04:27:21.259Z,2.00
2023-03-27T04:29:57.081Z,1.92
2023-03-27T04:32:43.622Z,2.00
2023-03-27T04:35:29.887Z,1.33
2023-03-27T04:38:06.403Z,1.88
2023-03-27T04:40:49.290Z,1.25
2023-03-27T04:43:17.534Z,1.60
2023-03-27T04:45:47.472Z,1.95
2023-03-27T04:48:15.416Z,2.30
2023-03-27T04:50:49.414Z,1.92
2023-03-27T04:53:30.428Z,1.85
2023-03-27T04:55:58.027Z,1.60
2023-03-27T04:58:28.430Z,2.05
2023-03-27T05:00:57.961Z,1.90
2023-03-27T05:03:44.032Z,1.85
2023-03-27T05:06:22.133Z,1.45
2023-03-27T05:08:50.567Z,1.60
2023-03-27T05:11:25.675Z,1.42
2023-03-27T05:13:52.743Z,1.48
2023-03-27T05:16:24.323Z,1.10
2023-03-27T05:18:55.357Z,1.30
2023-03-27T05:21:22.908Z,1.42
2023-03-27T05:23:50.033Z,1.73
2023-03-27T05:26:22.695Z,1.98
2023-03-27T05:28:55.786Z,2.03
2023-03-27T05:31:23.325Z,1.48
2023-03-27T05:34:00.422Z,1.80
2023-03-27T05:36:30.752Z,1.90
2023-03-27T05:38:58.465Z,1.67
2023-03-27T05:41:30.878Z,2.15
2023-03-27T05:43:57.782Z,2.22
2023-03-27T05:46:25.366Z,2.00
2023-03-27T05:48:59.704Z,2.00
2023-03-27T05:51:27.586Z,2.00
2023-03-27T05:53:54.556Z,1.98
2023-03-27T05:56:25.434Z,2.38
2023-03-27T05:58:54.905Z,2.03
2023-03-27T06:01:23.865Z,2.00
2023-03-27T06:03:56.387Z,1.88
2023-03-27T06:06:44.653Z,2.58
2023-03-27T06:09:12.697Z,2.92
2023-03-27T06:11:42.937Z,2.55
2023-03-27T06:14:10.113Z,2.00
2023-03-27T06:16:59.879Z,2.22
2023-03-27T06:19:40.025Z,1.95
2023-03-27T06:22:07.399Z,1.65
2023-03-27T06:24:35.411Z,2.55
2023-03-27T06:27:03.835Z,1.88
2023-03-27T06:29:33.426Z,2.30
2023-03-27T06:32:01.929Z,2.38
2023-03-27T06:34:33.809Z,2.00
2023-03-27T06:37:10.382Z,2.67
2023-03-27T06:39:41.158Z,2.08
2023-03-27T06:42:08.485Z,2.30
2023-03-27T06:44:44.917Z,1.70
2023-03-27T06:47:18.841Z,1.38
2023-03-27T06:50:04.812Z,1.50
2023-03-27T06:52:33.343Z,1.90
2023-03-27T06:55:15.103Z,2.03
2023-03-27T06:57:53.306Z,2.10
2023-03-27T07:00:24.595Z,1.60
2023-03-27T07:03:11.932Z,1.40
2023-03-27T07:06:03.662Z,1.90
2023-03-27T07:08:42.036Z,2.25
2023-03-27T07:11:12.083Z,1.50
2023-03-27T07:13:45.265Z,1.55
2023-03-27T07:16:21.076Z,2.08
2023-03-27T07:18:48.136Z,1.67
2023-03-27T07:21:15.853Z,2.00
2023-03-27T07:23:43.304Z,2.38
2023-03-27T07:26:12.440Z,1.80
2023-03-27T07:28:51.825Z,1.40
2023-03-27T07:31:33.008Z,1.88
2023-03-27T07:34:04.692Z,2.42
2023-03-27T07:36:51.642Z,1.60
2023-03-27T07:39:18.788Z,1.58
2023-03-27T07:41:45.769Z,1.70
2023-03-27T07:44:21.124Z,1.45
2023-03-27T07:47:02.770Z,1.75
2023-03-27T07:49:40.382Z,1.60
2023-03-27T07:52:15.265Z,1.67
2023-03-27T07:55:04.445Z,2.03
2023-03-27T07:57:58.013Z,1.73
2023-03-27T08:00:29.814Z,2.00
2023-03-27T08:03:11.946Z,1.95
2023-03-27T08:05:43.955Z,2.25
2023-03-27T08:08:13.749Z,1.75
2023-03-27T08:10:46.436Z,1.95
2023-03-27T08:13:15.230Z,2.05
2023-03-27T08:15:42.838Z,1.85
2023-03-27T08:18:20.726Z,2.55
2023-03-27T08:20:48.412Z,2.72
2023-03-27T08:23:15.346Z,3.30
2023-03-27T08:26:01.645Z,2.58
2023-03-27T08:28:36.688Z,2.28
2023-03-27T08:31:14.051Z,2.25
2023-03-27T08:33:42.842Z,2.85
2023-03-27T08:36:15.479Z,2.40
2023-03-27T08:38:43.312Z,2.38
2023-03-27T08:41:38.973Z,3.10
2023-03-27T08:44:24.498Z,2.63
2023-03-27T08:46:58.632Z,2.80
2023-03-27T08:49:41.398Z,3.40
2023-03-27T08:52:22.693Z,3.60
2023-03-27T08:55:00.974Z,2.60
2023-03-27T08:57:37.696Z,2.50
2023-03-27T09:00:21.950Z,2.40
2023-03-27T09:02:52.791Z,2.35
2023-03-27T09:05:54.962Z,2.42
2023-03-27T09:08:49.733Z,2.20
2023-03-27T09:11:36.585Z,2.63
2023-03-27T09:14:27.071Z,2.47
2023-03-27T09:16:56.820Z,2.03
2023-03-27T09:20:17.955Z,2.28
2023-03-27T09:23:03.508Z,3.00
2023-03-27T09:25:58.474Z,2.08
2023-03-27T09:28:51.506Z,2.20
2023-03-27T09:31:35.424Z,1.85
2023-03-27T09:34:12.711Z,2.08
2023-03-27T09:36:40.709Z,1.95
2023-03-27T09:39:28.187Z,2.30
2023-03-27T09:42:24.016Z,1.95
2023-03-27T09:44:56.816Z,2.67
2023-03-27T09:47:45.597Z,2.75
2023-03-27T09:50:27.737Z,2.80
2023-03-27T09:53:12.746Z,2.83
2023-03-27T09:56:14.458Z,2.53
2023-03-27T09:58:49.127Z,2.50
2023-03-27T10:01:23.066Z,2.00
2023-03-27T10:03:56.219Z,2.00
2023-03-27T10:06:48.788Z,1.90
2023-03-27T10:09:38.662Z,1.80
2023-03-27T10:12:16.457Z,1.80
2023-03-27T10:14:47.386Z,1.92
2023-03-27T10:17:23.327Z,2.40
2023-03-27T10:20:13.200Z,2.38
2023-03-27T10:22:43.762Z,2.05
2023-03-27T10:25:20.043Z,2.00
2023-03-27T10:27:54.148Z,2.17
2023-03-27T10:30:38.163Z,2.15
2023-03-27T10:33:35.329Z,2.03
2023-03-27T10:36:25.020Z,1.70
2023-03-27T10:39:00.842Z,1.90
2023-03-27T10:41:48.463Z,2.08
2023-03-27T10:44:19.889Z,1.73
2023-03-27T10:46:53.837Z,2.08
2023-03-27T10:49:43.664Z,2.35
2023-03-27T10:52:42.872Z,1.90
2023-03-27T10:55:44.902Z,2.53
2023-03-27T10:58:35.328Z,2.92
2023-03-27T11:01:15.164Z,2.60
2023-03-27T11:04:04.550Z,2.30
2023-03-27T11:06:41.377Z,1.77
2023-03-27T11:09:17.804Z,1.92
2023-03-27T11:12:05.253Z,2.05
2023-03-27T11:14:51.505Z,2.17
2023-03-27T11:17:31.494Z,2.38
2023-03-27T11:23:30.299Z,2.20
2023-03-27T11:26:18.232Z,2.67
2023-03-27T11:29:04.281Z,2.13
2023-03-27T11:31:51.106Z,3.10
2023-03-27T11:35:02.719Z,2.30
2023-03-27T11:37:59.695Z,2.15
2023-03-27T11:40:39.449Z,2.55
2023-03-27T11:43:13.163Z,2.05
2023-03-27T11:46:05.286Z,2.33
2023-03-27T11:48:35.389Z,1.85
2023-03-27T11:51:32.601Z,1.83
2023-03-27T11:54:22.160Z,2.42
2023-03-27T11:59:54.750Z,2.63
2023-03-27T12:02:31.253Z,3.03
2023-03-27T12:05:03.998Z,2.20
2023-03-27T12:07:53.727Z,2.10
2023-03-27T12:10:38.799Z,1.40
2023-03-27T12:13:41.233Z,1.70
2023-03-27T12:16:43.681Z,1.92
2023-03-27T12:19:26.891Z,1.80
2023-03-27T12:22:23.864Z,1.45
2023-03-27T12:25:15.308Z,1.98
2023-03-27T12:28:35.850Z,1.80
2023-03-27T12:31:47.493Z,1.95
2023-03-27T12:34:50.160Z,1.73
2023-03-27T12:37:23.215Z,1.83
2023-03-27T12:39:57.377Z,1.75
2023-03-27T12:42:52.069Z,1.70
2023-03-27T12:45:24.595Z,1.63
2023-03-27T12:48:17.758Z,2.33
2023-03-27T12:50:52.737Z,2.58
2023-03-27T12:53:26.034Z,1.97
2023-03-27T12:56:18.370Z,2.83
2023-03-27T12:58:52.343Z,1.92
2023-03-27T13:01:51.635Z,2.40
2023-03-27T13:04:38.951Z,2.58
2023-03-27T13:07:41.805Z,2.15
2023-03-27T13:10:46.976Z,2.75
2023-03-27T13:13:55.878Z,1.95
2023-03-27T13:16:50.249Z,2.50
2023-03-27T13:19:35.432Z,2.20
2023-03-27T13:22:53.558Z,1.75
2023-03-27T13:25:43.165Z,1.88
2023-03-27T13:28:19.311Z,2.45
2023-03-27T13:30:59.236Z,2.25
2023-03-27T13:34:10.867Z,2.03
2023-03-27T13:36:48.069Z,1.70
2023-03-27T13:39:24.631Z,1.70
2023-03-27T13:42:06.376Z,1.70
2023-03-27T13:44:46.959Z,1.73
2023-03-27T13:47:48.597Z,1.80
2023-03-27T13:51:13.894Z,1.90
2023-03-27T13:54:07.960Z,2.17
2023-03-27T13:56:55.601Z,1.30
2023-03-27T13:59:42.115Z,2.00
2023-03-27T14:02:16.295Z,1.50
2023-03-27T14:05:05.196Z,1.35
2023-03-27T14:07:55.204Z,1.65
2023-03-27T14:11:00.245Z,2.05
2023-03-27T14:13:46.197Z,1.60
2023-03-27T14:16:22.626Z,1.60
2023-03-27T14:19:33.345Z,1.73
2023-03-27T14:22:14.541Z,1.95
2023-03-27T14:24:58.645Z,1.92
2023-03-27T14:27:43.973Z,1.98
2023-03-27T14:30:20.317Z,1.85
2023-03-27T14:32:56.564Z,1.48
2023-03-27T14:35:44.404Z,2.08
2023-03-27T14:38:33.288Z,1.90
2023-03-27T14:41:06.937Z,1.63
2023-03-27T14:43:48.785Z,1.38
2023-03-27T14:46:17.238Z,2.03
2023-03-27T14:48:46.492Z,1.70
2023-03-27T14:51:21.368Z,1.58
2023-03-27T14:53:50.933Z,1.67
2023-03-27T14:56:37.409Z,2.08
2023-03-27T14:59:30.185Z,1.88
2023-03-27T15:02:08.378Z,1.20
2023-03-27T15:04:40.123Z,1.80
2023-03-27T15:07:20.364Z,2.22
2023-03-27T15:10:21.347Z,1.77
2023-03-27T15:13:10.380Z,1.90
2023-03-27T15:15:44.247Z,1.60
2023-03-27T15:18:22.539Z,1.58
2023-03-27T15:20:50.778Z,1.88
2023-03-27T15:23:38.183Z,1.33
2023-03-27T15:26:12.248Z,1.75
2023-03-27T15:29:04.311Z,1.77
2023-03-27T15:31:32.924Z,1.73
2023-03-27T15:34:10.728Z,1.88
2023-03-27T15:36:38.617Z,2.10
2023-03-27T15:39:06.848Z,1.90
2023-03-27T15:41:34.975Z,1.92
2023-03-27T15:44:13.121Z,1.52
2023-03-27T15:46:51.012Z,2.38
2023-03-27T15:49:34.336Z,2.08
2023-03-27T15:52:29.718Z,1.40
2023-03-27T15:54:57.445Z,1.97
2023-03-27T15:57:29.365Z,1.40
2023-03-27T16:00:02.849Z,1.92
2023-03-27T16:02:40.877Z,1.80
2023-03-27T16:05:08.033Z,1.40
2023-03-27T16:07:48.607Z,1.52
2023-03-27T16:10:30.761Z,1.70
2023-03-27T16:13:03.096Z,1.52
2023-03-27T16:15:34.421Z,1.50
2023-03-27T16:18:18.745Z,2.00
2023-03-27T16:20:45.985Z,2.00
2023-03-27T16:23:12.791Z,2.05
2023-03-27T16:25:41.417Z,1.60
2023-03-27T16:28:09.870Z,2.17
2023-03-27T16:30:39.630Z,1.45
2023-03-27T16:33:16.041Z,1.65
2023-03-27T16:35:44.211Z,1.77
2023-03-27T16:38:11.818Z,1.80
2023-03-27T16:40:38.763Z,1.90
2023-03-27T16:43:05.675Z,1.33
2023-03-27T16:45:32.662Z,1.80
2023-03-27T16:47:59.706Z,1.80
2023-03-27T16:50:29.058Z,2.50
2023-03-27T16:52:56.389Z,1.88
2023-03-27T16:55:24.923Z,1.63
2023-03-27T16:57:54.053Z,1.63
2023-03-27T17:00:21.274Z,1.80
2023-03-27T17:02:48.474Z,1.75
2023-03-27T17:05:15.859Z,1.73
2023-03-27T17:07:44.767Z,2.30
2023-03-27T17:10:11.874Z,2.10
2023-03-27T17:12:39.106Z,1.58
2023-03-27T17:15:06.575Z,1.85
2023-03-27T17:17:33.536Z,1.95
2023-03-27T17:20:00.898Z,2.20
2023-03-27T17:22:29.967Z,1.83
2023-03-27T17:24:57.999Z,1.58
2023-03-27T17:27:26.463Z,1.90
2023-03-27T17:29:55.951Z,1.80
2023-03-27T17:32:24.359Z,2.22
2023-03-27T17:34:52.149Z,1.58
2023-03-27T17:37:20.977Z,2.10
2023-03-27T17:39:48.882Z,2.30
2023-03-27T17:42:15.912Z,2.08
2023-03-27T17:44:44.476Z,1.95
2023-03-27T17:47:11.642Z,1.98
2023-03-27T17:49:38.578Z,2.30
2023-03-27T17:52:08.299Z,2.03
2023-03-27T17:54:35.329Z,1.92
2023-03-27T17:57:02.987Z,1.70
2023-03-27T17:59:33.163Z,2.25
2023-03-27T18:02:00.392Z,2.30
2023-03-27T18:04:27.533Z,1.63
2023-03-27T18:06:54.514Z,1.77
2023-03-27T18:09:21.427Z,2.15
2023-03-27T18:11:48.471Z,2.85
2023-03-27T18:14:15.374Z,1.80
2023-03-27T18:16:42.730Z,3.53
2023-03-27T18:19:09.650Z,2.60
2023-03-27T18:21:36.620Z,3.35
2023-03-27T18:24:03.655Z,3.05
2023-03-27T18:26:30.616Z,2.85
2023-03-27T18:28:57.858Z,2.50
2023-03-27T18:31:25.385Z,1.92
2023-03-27T18:33:52.721Z,2.30
2023-03-27T18:36:20.420Z,2.85
2023-03-27T18:38:49.672Z,1.75
2023-03-27T18:41:17.086Z,1.80
2023-03-27T18:43:44.133Z,2.03
2023-03-27T18:46:16.534Z,2.17
2023-03-27T18:48:45.374Z,2.60
2023-03-27T18:51:12.572Z,2.67
2023-03-27T18:53:39.772Z,2.15
2023-03-27T18:56:07.844Z,2.40
2023-03-27T18:58:35.774Z,2.83
2023-03-27T19:01:08.402Z,3.03
2023-03-27T19:03:36.361Z,2.63
2023-03-27T19:06:05.621Z,2.80
2023-03-27T19:08:33.488Z,1.90
2023-03-27T19:11:00.792Z,2.88
2023-03-27T19:13:46.870Z,1.90
2023-03-27T19:16:36.927Z,2.10
2023-03-27T19:19:36.285Z,1.55
2023-03-27T19:22:21.404Z,3.33
2023-03-27T19:24:54.341Z,3.40
2023-03-27T19:27:23.746Z,3.70
2023-03-27T19:29:52.492Z,3.42
2023-03-27T19:32:19.523Z,2.67
2023-03-27T19:34:47.369Z,2.15
2023-03-27T19:37:14.237Z,1.98
2023-03-27T19:39:41.297Z,1.90
2023-03-27T19:42:08.173Z,1.70
2023-03-27T19:44:38.085Z,1.77
2023-03-27T19:47:06.004Z,2.17
2023-03-27T19:49:32.970Z,1.70
2023-03-27T19:52:19.891Z,2.45
2023-03-27T19:54:47.089Z,1.75
2023-03-27T19:57:14.467Z,2.35
2023-03-27T19:59:41.390Z,2.35
2023-03-27T20:02:11.557Z,2.00
2023-03-27T20:04:38.938Z,1.63
2023-03-27T20:07:07.597Z,1.88
2023-03-27T20:09:34.691Z,1.98
2023-03-27T20:12:01.559Z,2.10
2023-03-27T20:14:29.697Z,1.88
2023-03-27T20:16:56.540Z,1.70
2023-03-27T20:19:28.523Z,2.33
2023-03-27T20:21:59.347Z,1.85
2023-03-27T20:24:26.289Z,2.20
2023-03-27T20:26:58.318Z,2.22
2023-03-27T20:29:26.393Z,2.03
2023-03-27T20:31:53.279Z,1.88
2023-03-27T20:34:22.386Z,1.85
2023-03-27T20:36:53.024Z,1.90
2023-03-27T20:39:33.508Z,2.20
2023-03-27T20:42:00.495Z,1.90
2023-03-27T20:44:35.170Z,1.75
2023-03-27T20:47:11.151Z,1.40
2023-03-27T20:49:44.995Z,1.80
2023-03-27T20:52:15.370Z,2.53
2023-03-27T20:54:42.411Z,2.80
2023-03-27T20:57:11.682Z,2.60
2023-03-27T20:59:39.212Z,3.20
2023-03-27T21:02:06.481Z,2.40
2023-03-27T21:04:33.438Z,3.53
2023-03-27T21:07:00.406Z,2.40
2023-03-27T21:09:27.745Z,2.50
2023-03-27T21:11:55.873Z,2.10
2023-03-27T21:14:23.154Z,2.33
2023-03-27T21:16:50.491Z,2.63
2023-03-27T21:19:19.898Z,2.28
2023-03-27T21:21:46.946Z,1.55
2023-03-27T21:24:14.335Z,1.90
2023-03-27T21:26:41.580Z,2.50
2023-03-27T21:29:12.148Z,2.17
2023-03-27T21:31:39.777Z,1.85
2023-03-27T21:34:07.288Z,2.50
2023-03-27T21:36:34.707Z,1.50
2023-03-27T21:39:01.632Z,1.83
2023-03-27T21:41:28.948Z,1.90
2023-03-27T21:43:55.897Z,1.88
2023-03-27T21:46:22.889Z,1.75
2023-03-27T21:48:50.486Z,2.03
2023-03-27T21:51:17.569Z,1.90
2023-03-27T21:53:45.661Z,1.95
2023-03-27T21:56:12.807Z,2.15
2023-03-27T21:58:39.707Z,1.92
2023-03-27T22:01:06.960Z,2.05
2023-03-27T22:03:33.987Z,2.00
2023-03-27T22:06:11.803Z,2.00
2023-03-27T22:08:41.339Z,1.85
2023-03-27T22:11:08.711Z,1.90
2023-03-27T22:13:36.951Z,1.80
2023-03-27T22:16:09.419Z,1.92
2023-03-27T22:18:36.330Z,2.17
2023-03-27T22:21:19.657Z,2.25
2023-03-27T22:23:46.721Z,1.88
2023-03-27T22:26:13.589Z,2.15
2023-03-27T22:28:40.703Z,2.15
2023-03-27T22:31:08.000Z,2.10
2023-03-27T22:33:36.327Z,2.53
2023-03-27T22:36:04.188Z,2.45
2023-03-27T22:38:32.785Z,2.30
2023-03-27T22:41:00.155Z,2.20
2023-03-27T22:43:30.751Z,2.38
2023-03-27T22:46:04.108Z,2.28
2023-03-27T22:48:31.175Z,2.00
2023-03-27T22:50:58.183Z,3.00
2023-03-27T22:53:26.167Z,3.05
2023-03-27T22:55:55.381Z,3.38
2023-03-27T22:58:23.325Z,4.47
2023-03-27T23:00:51.526Z,4.90
2023-03-27T23:03:19.274Z,4.72
2023-03-27T23:05:49.147Z,4.20
2023-03-27T23:08:18.006Z,3.75
2023-03-27T23:10:46.012Z,5.00
2023-03-27T23:13:13.304Z,4.35
2023-03-27T23:15:40.220Z,4.38
2023-03-27T23:18:07.214Z,4.03
2023-03-27T23:20:34.028Z,4.43
2023-03-27T23:23:00.950Z,4.75
2023-03-27T23:25:27.788Z,5.13
2023-03-27T23:27:54.659Z,4.75
2023-03-27T23:30:21.560Z,4.70
2023-03-27T23:32:48.468Z,4.40
2023-03-27T23:35:15.767Z,4.57
2023-03-27T23:37:42.699Z,5.30
2023-03-27T23:40:10.011Z,5.03
2023-03-27T23:42:36.960Z,5.30
2023-03-27T23:45:03.928Z,4.90
2023-03-27T23:47:31.002Z,5.07
2023-03-27T23:49:57.851Z,5.63
2023-03-27T23:52:24.790Z,5.85
2023-03-27T23:54:51.632Z,5.43
2023-03-27T23:57:18.712Z,5.63
2023-03-27T23:59:45.595Z,4.80
